7XS2 weather

Texas Childrens Downtown Heliport
Houston, Texas, United States

Public forecast

Using degrees Fahrenheit for public forecast. Weather courtesy of forecast.io.

Closest aviation weather report (METAR) to Texas Childrens Downtown Heliport

Closest report is William P Hobby Airport, 7.5 nm (13.8 km) ESE. Retrieved 2020/08/04 01:53 UTC (48 minutes ago):

KHOU 040153Z 19009KT 10SM FEW050 BKN250 31/23 A2996 RMK AO2 SLP148 T03060228

Closest aviation forecast (TAF) to Texas Childrens Downtown Heliport

Closest forecast is William P Hobby Airport, 7.5 nm (13.8 km) ESE. Retrieved 2020-08-04 00:30 UTC (2 hours ago):

TAF KHOU 032328Z 0400/0424 14005KT P6SM SCT070 SCT250 FM040200 VRB04KT P6SM FEW070 BKN250 FM042100 VRB06KT P6SM VCTS SCT050CB SCT250